createdAt,value
2019-03-27T00:01:10.617Z,42.88
2019-03-27T00:03:44.487Z,42.39
2019-03-27T00:06:15.599Z,43.13
2019-03-27T00:08:45.860Z,43.04
2019-03-27T00:11:17.123Z,43.04
2019-03-27T00:13:51.409Z,43.39
2019-03-27T00:16:24.647Z,42.20
2019-03-27T00:18:57.209Z,43.22
2019-03-27T00:21:29.064Z,43.09
2019-03-27T00:24:02.082Z,43.34
2019-03-27T00:26:33.861Z,43.13
2019-03-27T00:29:05.751Z,43.41
2019-03-27T00:31:38.853Z,43.41
2019-03-27T00:34:12.054Z,43.26
2019-03-27T00:36:43.923Z,43.76
2019-03-27T00:39:15.550Z,43.81
2019-03-27T00:41:45.680Z,43.81
2019-03-27T00:44:15.737Z,43.41
2019-03-27T00:46:48.290Z,43.68
2019-03-27T00:49:20.640Z,43.80
2019-03-27T00:51:53.228Z,43.52
2019-03-27T00:54:29.483Z,43.25
2019-03-27T00:56:56.642Z,43.54
2019-03-27T00:59:28.972Z,43.63
2019-03-27T01:02:01.249Z,43.38
2019-03-27T01:04:34.814Z,43.38
2019-03-27T01:07:05.055Z,43.00
2019-03-27T01:09:44.797Z,43.00
2019-03-27T01:12:14.884Z,43.51
2019-03-27T01:14:45.123Z,43.38
2019-03-27T01:17:19.673Z,42.55
2019-03-27T01:19:50.020Z,42.55
2019-03-27T01:22:20.154Z,43.48
2019-03-27T01:24:57.314Z,43.35
2019-03-27T01:27:31.417Z,43.00
2019-03-27T01:30:01.706Z,43.05
2019-03-27T01:32:35.586Z,42.92
2019-03-27T01:35:06.173Z,43.67
2019-03-27T01:37:37.549Z,43.02
2019-03-27T01:40:10.362Z,43.64
2019-03-27T01:42:40.235Z,43.64
2019-03-27T01:45:11.303Z,43.47
2019-03-27T01:47:43.513Z,43.89
2019-03-27T01:50:13.586Z,44.10
2019-03-27T01:52:45.814Z,43.43
2019-03-27T01:55:17.571Z,43.43
2019-03-27T01:57:47.795Z,43.82
2019-03-27T02:00:18.254Z,43.45
2019-03-27T02:02:52.765Z,43.26
2019-03-27T02:05:24.255Z,43.91
2019-03-27T02:07:54.228Z,43.48
2019-03-27T02:10:27.934Z,43.58
2019-03-27T02:12:59.466Z,43.32
2019-03-27T02:15:29.778Z,42.83
2019-03-27T02:17:59.890Z,42.83
2019-03-27T02:20:30.015Z,43.35
2019-03-27T02:23:00.218Z,43.36
2019-03-27T02:25:30.497Z,43.98
2019-03-27T02:28:00.696Z,44.00
2019-03-27T02:30:33.218Z,43.22
2019-03-27T02:33:03.240Z,43.83
2019-03-27T02:35:35.715Z,44.28
2019-03-27T02:38:05.845Z,44.48
2019-03-27T02:40:36.230Z,44.07
2019-03-27T02:43:06.363Z,43.83
2019-03-27T02:45:36.624Z,43.94
2019-03-27T02:48:06.720Z,44.18
2019-03-27T02:50:40.160Z,44.53
2019-03-27T02:53:10.289Z,44.35
2019-03-27T02:55:41.254Z,44.89
2019-03-27T02:58:15.241Z,45.22
2019-03-27T03:00:45.416Z,44.36
2019-03-27T03:03:15.625Z,44.65
2019-03-27T03:05:45.786Z,44.30
2019-03-27T03:08:18.021Z,44.59
2019-03-27T03:10:48.298Z,44.14
2019-03-27T03:13:18.635Z,44.25
2019-03-27T03:15:49.695Z,44.36
2019-03-27T03:18:19.750Z,44.67
2019-03-27T03:20:52.401Z,45.26
2019-03-27T03:23:22.722Z,44.74
2019-03-27T03:25:52.777Z,44.58
2019-03-27T03:28:22.754Z,44.60
2019-03-27T03:30:52.958Z,44.67
2019-03-27T03:33:25.985Z,44.71
2019-03-27T03:35:57.642Z,44.46
2019-03-27T03:38:30.155Z,45.51
2019-03-27T03:41:01.565Z,44.47
2019-03-27T03:43:31.757Z,45.10
2019-03-27T03:46:02.190Z,46.00
2019-03-27T03:48:34.262Z,45.71
2019-03-27T03:51:05.718Z,45.25
2019-03-27T03:53:39.034Z,46.35
2019-03-27T03:56:12.224Z,46.38
2019-03-27T03:58:43.306Z,46.14
2019-03-27T04:01:14.802Z,47.20
2019-03-27T04:03:49.570Z,47.27
2019-03-27T04:06:19.873Z,46.56
2019-03-27T04:08:53.140Z,47.60
2019-03-27T04:11:23.353Z,46.72
2019-03-27T04:13:56.113Z,46.60
2019-03-27T04:16:26.347Z,48.38
2019-03-27T04:18:58.134Z,47.26
2019-03-27T04:21:28.364Z,47.41
2019-03-27T04:23:58.461Z,47.17
2019-03-27T04:26:28.484Z,47.15
2019-03-27T04:28:59.811Z,47.45
2019-03-27T04:31:29.995Z,48.23
2019-03-27T04:34:00.043Z,47.04
2019-03-27T04:36:31.547Z,48.11
2019-03-27T04:39:01.689Z,48.58
2019-03-27T04:41:35.194Z,47.20
2019-03-27T04:44:08.793Z,47.38
2019-03-27T04:46:44.948Z,47.16
2019-03-27T04:49:11.739Z,47.16
2019-03-27T04:51:45.723Z,46.86
2019-03-27T04:54:15.772Z,46.75
2019-03-27T04:56:45.775Z,47.29
2019-03-27T04:59:20.911Z,47.05
2019-03-27T05:01:52.010Z,47.52
2019-03-27T05:04:24.498Z,47.02
2019-03-27T05:06:54.523Z,47.09
2019-03-27T05:09:24.714Z,46.42
2019-03-27T05:11:56.693Z,46.52
2019-03-27T05:14:26.907Z,45.75
2019-03-27T05:16:58.429Z,46.82
2019-03-27T05:19:28.627Z,46.64
2019-03-27T05:21:58.887Z,46.13
2019-03-27T05:24:30.142Z,45.78
2019-03-27T05:27:03.725Z,46.41
2019-03-27T05:29:33.882Z,46.55
2019-03-27T05:32:04.110Z,46.26
2019-03-27T05:34:34.256Z,46.37
2019-03-27T05:37:07.347Z,45.25
2019-03-27T05:39:37.547Z,46.14
2019-03-27T05:42:07.718Z,45.61
2019-03-27T05:44:39.193Z,46.42
2019-03-27T05:47:10.658Z,45.37
2019-03-27T05:49:40.588Z,44.96
2019-03-27T05:52:10.519Z,44.35
2019-03-27T05:54:40.715Z,43.15
2019-03-27T05:57:13.267Z,43.37
2019-03-27T05:59:46.698Z,42.52
2019-03-27T06:02:17.931Z,42.28
2019-03-27T06:04:49.612Z,42.70
2019-03-27T06:07:19.847Z,41.94
2019-03-27T06:09:53.925Z,41.75
2019-03-27T06:12:26.700Z,41.44
2019-03-27T06:14:56.843Z,40.72
2019-03-27T06:17:26.931Z,40.13
2019-03-27T06:19:58.863Z,39.89
2019-03-27T06:22:30.783Z,39.00
2019-03-27T06:25:04.236Z,38.65
2019-03-27T06:27:34.137Z,39.22
2019-03-27T06:30:06.595Z,39.11
2019-03-27T06:32:38.681Z,38.39
2019-03-27T06:35:09.409Z,36.79
2019-03-27T06:37:39.663Z,36.53
2019-03-27T06:40:10.136Z,34.97
2019-03-27T06:42:40.272Z,32.52
2019-03-27T06:45:10.882Z,31.71
2019-03-27T06:47:41.050Z,29.37
2019-03-27T06:50:16.023Z,28.52
2019-03-27T06:52:47.381Z,27.40
2019-03-27T06:55:20.912Z,24.68
2019-03-27T06:57:52.048Z,21.58
2019-03-27T07:00:30.815Z,20.47
2019-03-27T07:03:03.474Z,18.21
2019-03-27T07:05:42.596Z,19.98
2019-03-27T07:08:12.534Z,20.77
2019-03-27T07:10:42.787Z,22.81
2019-03-27T07:13:12.887Z,23.00
2019-03-27T07:15:44.709Z,23.87
2019-03-27T07:18:16.806Z,24.91
2019-03-27T07:20:46.873Z,25.47
2019-03-27T07:23:18.689Z,23.01
2019-03-27T07:25:52.996Z,22.13
2019-03-27T07:28:23.109Z,21.41
2019-03-27T07:30:54.351Z,20.96
2019-03-27T07:33:24.571Z,20.21
2019-03-27T07:35:57.467Z,20.18
2019-03-27T07:38:28.582Z,20.52
2019-03-27T07:41:00.017Z,19.50
2019-03-27T07:43:30.068Z,19.17
2019-03-27T07:46:00.153Z,20.25
2019-03-27T07:48:30.392Z,20.71
2019-03-27T07:51:02.138Z,20.64
2019-03-27T07:53:35.492Z,21.35
2019-03-27T07:56:09.774Z,22.52
2019-03-27T07:58:39.979Z,23.76
2019-03-27T08:01:10.180Z,23.67
2019-03-27T08:03:40.369Z,24.56
2019-03-27T08:06:10.457Z,25.67
2019-03-27T08:08:45.307Z,25.44
2019-03-27T08:11:18.713Z,27.67
2019-03-27T08:13:56.589Z,25.67
2019-03-27T08:16:28.825Z,26.19
2019-03-27T08:19:07.854Z,26.82
2019-03-27T08:21:34.959Z,27.19
2019-03-27T08:24:07.157Z,27.58
2019-03-27T08:26:42.653Z,25.50
2019-03-27T08:29:12.795Z,26.23
2019-03-27T08:31:47.570Z,27.83
2019-03-27T08:34:17.724Z,25.94
2019-03-27T08:36:50.191Z,28.63
2019-03-27T08:39:22.583Z,26.91
2019-03-27T08:41:52.838Z,26.46
2019-03-27T08:44:23.018Z,27.85
2019-03-27T08:46:55.444Z,28.10
2019-03-27T08:49:27.491Z,28.10
2019-03-27T08:51:59.608Z,26.81
2019-03-27T08:54:29.761Z,26.52
2019-03-27T08:57:00.002Z,25.25
2019-03-27T08:59:30.117Z,26.15
2019-03-27T09:02:00.313Z,21.38
2019-03-27T09:04:33.424Z,19.84
2019-03-27T09:07:05.969Z,17.48
2019-03-27T09:09:40.381Z,16.55
2019-03-27T09:12:10.634Z,15.82
2019-03-27T09:14:40.683Z,14.58
2019-03-27T09:17:13.122Z,13.88
2019-03-27T09:19:43.363Z,14.51
2019-03-27T09:22:19.476Z,15.55
2019-03-27T09:24:51.881Z,16.67
2019-03-27T09:30:15.166Z,18.72
2019-03-27T09:32:46.470Z,17.89
2019-03-27T09:35:16.881Z,15.83
2019-03-27T09:37:48.947Z,14.33
2019-03-27T09:40:21.466Z,13.45
2019-03-27T09:42:53.329Z,13.87
2019-03-27T09:45:27.383Z,12.30
2019-03-27T09:47:57.630Z,11.64
2019-03-27T09:50:30.059Z,11.54
2019-03-27T09:53:00.317Z,11.33
2019-03-27T09:55:30.540Z,11.58
2019-03-27T09:58:04.324Z,11.75
2019-03-27T10:00:57.128Z,11.49
2019-03-27T10:03:29.799Z,12.68
2019-03-27T10:06:01.490Z,10.84
2019-03-27T10:08:33.219Z,11.07
2019-03-27T10:11:06.511Z,10.42
2019-03-27T10:13:36.802Z,9.33
2019-03-27T10:16:07.201Z,9.53
2019-03-27T10:18:37.378Z,9.49
2019-03-27T10:21:09.966Z,9.96
2019-03-27T10:23:40.077Z,10.88
2019-03-27T10:26:12.161Z,8.66
2019-03-27T10:28:44.135Z,9.24
2019-03-27T10:31:16.455Z,9.45
2019-03-27T10:33:52.024Z,9.79
2019-03-27T10:36:22.036Z,8.19
2019-03-27T10:38:52.140Z,8.80
2019-03-27T10:41:26.509Z,8.37
2019-03-27T10:43:54.052Z,8.16
2019-03-27T10:46:24.243Z,8.28
2019-03-27T10:48:54.421Z,9.26
2019-03-27T10:51:24.809Z,8.01
2019-03-27T10:53:55.013Z,7.94
2019-03-27T10:56:25.167Z,8.17
2019-03-27T10:58:55.382Z,8.35
2019-03-27T11:01:25.415Z,7.72
2019-03-27T11:03:55.586Z,7.22
2019-03-27T11:06:25.749Z,7.78
2019-03-27T11:08:57.315Z,8.63
2019-03-27T11:11:27.429Z,7.96
2019-03-27T11:13:57.629Z,7.14
2019-03-27T11:16:27.983Z,6.75
2019-03-27T11:18:58.061Z,7.62
2019-03-27T11:21:28.199Z,8.01
2019-03-27T11:23:58.497Z,7.45
2019-03-27T11:26:30.843Z,7.51
2019-03-27T11:29:01.002Z,7.78
2019-03-27T11:31:32.491Z,9.10
2019-03-27T11:34:03.911Z,8.75
2019-03-27T11:36:35.303Z,10.94
2019-03-27T11:39:08.545Z,12.54
2019-03-27T11:41:38.769Z,13.52
2019-03-27T11:44:12.668Z,15.27
2019-03-27T11:46:44.193Z,15.50
2019-03-27T11:49:14.386Z,16.88
2019-03-27T11:51:44.582Z,16.78
2019-03-27T11:54:14.674Z,17.90
2019-03-27T11:56:44.749Z,17.75
2019-03-27T11:59:14.938Z,19.17
2019-03-27T12:01:47.319Z,20.33
2019-03-27T12:04:17.560Z,21.87
2019-03-27T12:06:49.680Z,20.03
2019-03-27T12:09:19.785Z,20.86
2019-03-27T12:11:51.411Z,21.13
2019-03-27T12:14:22.504Z,22.68
2019-03-27T12:16:54.176Z,21.01
2019-03-27T12:19:25.628Z,22.67
2019-03-27T12:21:59.767Z,22.92
2019-03-27T12:24:31.210Z,24.35
2019-03-27T12:27:01.342Z,23.17
2019-03-27T12:29:32.920Z,23.24
2019-03-27T12:32:06.379Z,23.91
2019-03-27T12:34:38.549Z,24.29
2019-03-27T12:37:08.665Z,23.48
2019-03-27T12:39:40.755Z,22.79
2019-03-27T12:42:10.742Z,23.05
2019-03-27T12:44:40.793Z,22.32
2019-03-27T12:47:11.029Z,23.79
2019-03-27T12:49:42.434Z,24.37
2019-03-27T12:52:12.821Z,22.87
2019-03-27T12:54:44.007Z,22.99
2019-03-27T12:57:14.013Z,22.97
2019-03-27T12:59:44.052Z,23.35
2019-03-27T13:02:14.378Z,24.02
2019-03-27T13:04:44.376Z,22.41
2019-03-27T13:07:16.207Z,22.48
2019-03-27T13:09:48.439Z,23.47
2019-03-27T13:12:18.627Z,22.50
2019-03-27T13:14:48.805Z,23.36
2019-03-27T13:17:23.451Z,22.31
2019-03-27T13:19:54.960Z,21.56
2019-03-27T13:22:24.998Z,22.25
2019-03-27T13:24:55.278Z,23.17
2019-03-27T13:27:25.502Z,23.22
2019-03-27T13:29:55.665Z,24.87
2019-03-27T13:32:25.733Z,25.55
2019-03-27T13:34:57.340Z,26.23
2019-03-27T13:37:28.850Z,24.31
2019-03-27T13:40:03.342Z,22.93
2019-03-27T13:42:36.416Z,23.86
2019-03-27T13:45:07.603Z,22.74
2019-03-27T13:47:39.670Z,21.86
2019-03-27T13:50:13.296Z,23.66
2019-03-27T13:52:46.426Z,22.21
2019-03-27T13:55:20.275Z,22.09
2019-03-27T13:57:52.076Z,23.19
2019-03-27T14:00:26.597Z,24.52
2019-03-27T14:02:58.254Z,25.18
2019-03-27T14:05:28.584Z,25.62
2019-03-27T14:08:01.015Z,24.84
2019-03-27T14:10:39.937Z,23.23
2019-03-27T14:13:10.151Z,24.40
2019-03-27T14:15:41.717Z,23.29
2019-03-27T14:18:14.784Z,24.19
2019-03-27T14:20:44.809Z,24.11
2019-03-27T14:23:16.421Z,23.82
2019-03-27T14:25:48.916Z,24.93
2019-03-27T14:28:20.318Z,23.38
2019-03-27T14:30:58.061Z,22.30
2019-03-27T14:33:31.815Z,22.65
2019-03-27T14:36:05.717Z,22.78
2019-03-27T14:38:35.966Z,23.29
2019-03-27T14:41:08.848Z,23.17
2019-03-27T14:43:40.049Z,22.86
2019-03-27T14:46:11.509Z,23.61
2019-03-27T14:48:43.239Z,23.72
2019-03-27T14:51:17.299Z,24.00
2019-03-27T14:53:51.102Z,23.97
2019-03-27T14:56:21.278Z,23.91
2019-03-27T14:58:51.348Z,22.87
2019-03-27T15:01:21.572Z,23.82
2019-03-27T15:03:51.659Z,23.97
2019-03-27T15:06:21.863Z,24.17
2019-03-27T15:08:52.472Z,23.85
2019-03-27T15:11:23.717Z,24.45
2019-03-27T15:13:53.960Z,23.67
2019-03-27T15:16:24.035Z,24.55
2019-03-27T15:18:54.020Z,23.52
2019-03-27T15:21:26.393Z,24.73
2019-03-27T15:24:04.173Z,25.54
2019-03-27T15:26:38.638Z,25.00
2019-03-27T15:29:12.538Z,24.29
2019-03-27T15:31:42.507Z,24.21
2019-03-27T15:34:12.631Z,24.84
2019-03-27T15:36:44.028Z,23.48
2019-03-27T15:39:14.219Z,24.92
2019-03-27T15:41:44.277Z,23.91
2019-03-27T15:44:14.408Z,24.87
2019-03-27T15:46:44.517Z,25.83
2019-03-27T15:49:14.574Z,25.50
2019-03-27T15:51:44.887Z,25.92
2019-03-27T15:54:14.975Z,24.85
2019-03-27T15:56:45.208Z,25.36
2019-03-27T15:59:18.505Z,25.20
2019-03-27T16:01:48.740Z,25.99
2019-03-27T16:04:20.405Z,26.66
2019-03-27T16:06:50.654Z,26.66
2019-03-27T16:09:22.162Z,24.71
2019-03-27T16:11:54.214Z,27.02
2019-03-27T16:14:25.512Z,25.76
2019-03-27T16:17:12.349Z,26.47
2019-03-27T16:19:30.094Z,26.74
2019-03-27T16:22:03.529Z,26.40
2019-03-27T16:24:39.167Z,26.35
2019-03-27T16:27:14.752Z,27.04
2019-03-27T16:29:44.956Z,27.03
2019-03-27T16:32:15.017Z,27.08
2019-03-27T16:34:45.053Z,27.01
2019-03-27T16:37:17.175Z,27.93
2019-03-27T16:39:47.405Z,27.05
2019-03-27T16:42:18.813Z,27.89
2019-03-27T16:44:50.663Z,27.17
2019-03-27T16:47:24.553Z,28.13
2019-03-27T16:49:54.610Z,27.71
2019-03-27T16:52:24.792Z,28.52
2019-03-27T16:54:55.100Z,28.32
2019-03-27T16:57:26.390Z,29.18
2019-03-27T16:59:56.534Z,29.56
2019-03-27T17:02:26.574Z,28.46
2019-03-27T17:04:56.531Z,28.94
2019-03-27T17:07:31.238Z,29.39
2019-03-27T17:10:01.348Z,28.43
2019-03-27T17:12:33.721Z,29.01
2019-03-27T17:15:04.357Z,28.94
2019-03-27T17:17:36.181Z,29.24
2019-03-27T17:20:07.478Z,29.63
2019-03-27T17:22:37.600Z,29.69
2019-03-27T17:25:07.750Z,28.67
2019-03-27T17:27:37.768Z,29.77
2019-03-27T17:30:08.572Z,29.66
2019-03-27T17:32:38.699Z,30.31
2019-03-27T17:35:10.435Z,29.98
2019-03-27T17:37:40.653Z,29.57
2019-03-27T17:40:11.235Z,29.23
2019-03-27T17:42:41.594Z,30.37
2019-03-27T17:45:12.047Z,30.32
2019-03-27T17:47:42.322Z,29.76
2019-03-27T17:50:17.028Z,30.13
2019-03-27T17:52:47.265Z,30.11
2019-03-27T17:55:18.699Z,30.37
2019-03-27T17:57:48.940Z,30.70
2019-03-27T18:00:26.434Z,30.98
2019-03-27T18:02:56.534Z,31.49
2019-03-27T18:05:27.153Z,31.04
2019-03-27T18:07:59.655Z,31.24
2019-03-27T18:10:29.990Z,30.95
2019-03-27T18:13:00.222Z,31.26
2019-03-27T18:15:32.858Z,30.52
2019-03-27T18:18:03.119Z,30.66
2019-03-27T18:20:33.295Z,31.57
2019-03-27T18:23:03.622Z,31.82
2019-03-27T18:25:33.856Z,31.16
2019-03-27T18:28:06.799Z,31.09
2019-03-27T18:30:37.018Z,31.88
2019-03-27T18:33:07.351Z,32.43
2019-03-27T18:35:37.385Z,31.30
2019-03-27T18:38:08.446Z,31.71
2019-03-27T18:40:41.099Z,30.81
2019-03-27T18:43:11.240Z,32.31
2019-03-27T18:45:41.510Z,31.09
2019-03-27T18:48:11.757Z,32.54
2019-03-27T18:50:42.853Z,32.89
2019-03-27T18:53:13.151Z,32.15
2019-03-27T18:55:52.027Z,32.33
2019-03-27T18:58:22.074Z,32.87
2019-03-27T19:00:52.230Z,32.74
2019-03-27T19:03:22.504Z,32.72
2019-03-27T19:05:52.735Z,32.98
2019-03-27T19:08:22.936Z,32.78
2019-03-27T19:10:53.254Z,32.86
2019-03-27T19:13:23.374Z,33.00
2019-03-27T19:15:53.975Z,33.24
2019-03-27T19:18:24.273Z,32.46
2019-03-27T19:20:54.428Z,32.88
2019-03-27T19:23:24.510Z,32.60
2019-03-27T19:25:54.793Z,33.91
2019-03-27T19:28:27.917Z,33.57
2019-03-27T19:30:58.084Z,33.54
2019-03-27T19:33:28.084Z,33.75
2019-03-27T19:35:58.254Z,33.73
2019-03-27T19:38:28.605Z,33.32
2019-03-27T19:41:00.200Z,33.70
2019-03-27T19:43:30.309Z,33.82
2019-03-27T19:46:05.734Z,35.76
2019-03-27T19:48:37.229Z,35.03
2019-03-27T19:51:07.674Z,35.08
2019-03-27T19:53:37.860Z,34.36
2019-03-27T19:56:08.063Z,34.34
2019-03-27T19:58:38.253Z,34.41
2019-03-27T20:01:09.090Z,34.10
2019-03-27T20:03:40.532Z,35.35
2019-03-27T20:06:12.364Z,35.35
2019-03-27T20:08:45.131Z,35.59
2019-03-27T20:11:16.948Z,35.15
2019-03-27T20:13:48.638Z,34.84
2019-03-27T20:16:21.763Z,35.17
2019-03-27T20:18:51.903Z,35.67
2019-03-27T20:21:24.328Z,36.05
2019-03-27T20:24:00.165Z,36.21
2019-03-27T20:26:30.431Z,35.75
2019-03-27T20:29:00.746Z,36.50
2019-03-27T20:31:30.941Z,35.59
2019-03-27T20:34:04.370Z,35.57
2019-03-27T20:36:36.303Z,35.83
2019-03-27T20:39:10.417Z,36.50
2019-03-27T20:41:40.545Z,36.32
2019-03-27T20:44:10.688Z,36.36
2019-03-27T20:46:40.761Z,36.94
2019-03-27T20:49:10.871Z,37.45
2019-03-27T20:51:41.427Z,37.50
2019-03-27T20:54:11.599Z,37.59
2019-03-27T20:56:41.879Z,38.32
2019-03-27T20:59:12.206Z,39.12
2019-03-27T21:01:42.379Z,39.12
2019-03-27T21:04:15.945Z,39.31
2019-03-27T21:06:46.395Z,38.86
2019-03-27T21:09:16.489Z,39.22
2019-03-27T21:11:46.705Z,38.97
2019-03-27T21:14:16.954Z,39.33
2019-03-27T21:16:47.246Z,40.10
2019-03-27T21:19:17.402Z,40.31
2019-03-27T21:21:49.592Z,40.88
2019-03-27T21:24:19.885Z,41.14
2019-03-27T21:26:51.810Z,41.23
2019-03-27T21:29:24.382Z,41.65
2019-03-27T21:31:55.971Z,41.55
2019-03-27T21:34:27.595Z,41.60
2019-03-27T21:37:01.554Z,41.85
2019-03-27T21:39:35.721Z,42.60
2019-03-27T21:42:05.874Z,43.16
2019-03-27T21:44:36.102Z,43.64
2019-03-27T21:47:09.193Z,43.26
2019-03-27T21:49:39.306Z,43.23
2019-03-27T21:52:09.581Z,43.40
2019-03-27T21:54:39.839Z,43.52
2019-03-27T21:57:17.328Z,43.73
2019-03-27T21:59:48.988Z,43.62
2019-03-27T22:02:22.042Z,43.34
2019-03-27T22:04:52.089Z,44.01
2019-03-27T22:07:22.189Z,44.18
2019-03-27T22:09:53.942Z,44.23
2019-03-27T22:12:24.144Z,44.37
2019-03-27T22:14:54.319Z,44.18
2019-03-27T22:17:24.688Z,44.59
2019-03-27T22:19:55.101Z,44.25
2019-03-27T22:22:28.754Z,44.25
2019-03-27T22:25:00.364Z,43.78
2019-03-27T22:27:30.732Z,43.46
2019-03-27T22:30:00.984Z,42.99
2019-03-27T22:32:33.062Z,44.54
2019-03-27T22:35:03.419Z,43.65
2019-03-27T22:37:37.195Z,43.53
2019-03-27T22:40:07.554Z,44.01
2019-03-27T22:42:39.854Z,43.32
2019-03-27T22:45:10.089Z,43.05
2019-03-27T22:47:40.438Z,42.69
2019-03-27T22:50:10.720Z,42.53
2019-03-27T22:52:42.261Z,42.34
2019-03-27T22:55:14.395Z,43.08
2019-03-27T22:57:46.386Z,42.30
2019-03-27T23:00:19.781Z,42.38
2019-03-27T23:02:51.432Z,42.62
2019-03-27T23:05:21.723Z,43.33
2019-03-27T23:07:51.935Z,42.96
2019-03-27T23:10:23.214Z,42.33
2019-03-27T23:12:53.456Z,42.57
2019-03-27T23:15:23.801Z,43.15
2019-03-27T23:17:54.004Z,43.46
2019-03-27T23:20:25.304Z,43.15
2019-03-27T23:22:55.560Z,43.85
2019-03-27T23:25:25.778Z,43.90
2019-03-27T23:27:58.018Z,44.56
2019-03-27T23:30:27.846Z,44.48
2019-03-27T23:32:57.990Z,44.32
2019-03-27T23:35:28.159Z,44.05
2019-03-27T23:37:58.307Z,44.19
2019-03-27T23:40:32.951Z,44.26
2019-03-27T23:43:03.213Z,43.80
2019-03-27T23:45:33.411Z,43.64
2019-03-27T23:48:05.768Z,44.39
2019-03-27T23:50:37.699Z,44.43
2019-03-27T23:53:08.021Z,44.14
2019-03-27T23:55:41.991Z,43.91
2019-03-27T23:58:14.593Z,44.00
